Time;durP1;ratioP1;P1;durP2;ratioP2;P2;SDS_P1;SDS_P2;PMS_P1;PMS_P2;Temp;Humidity;BMP_temperature;BMP_pressure;BME280_temperature;BME280_humidity;BME280_pressure;Samples;Min_cycle;Max_cycle;Signal;HPM_P1;HPM_P2
2022/04/20 00:01:31;;;;;;;8.15;1.50;;;8.60;99.90;;;;;;4995942;28;20057;-82
2022/04/20 00:03:56;;;;;;;2.50;1.30;;;8.60;99.90;;;;;;5013673;28;20626;-80
2022/04/20 00:06:22;;;;;;;2.15;1.45;;;8.60;99.90;;;;;;4995827;28;20033;-79
2022/04/20 00:08:47;;;;;;;2.65;1.23;;;8.60;99.90;;;;;;4994862;28;20040;-80
2022/04/20 00:11:13;;;;;;;7.13;1.50;;;8.50;99.90;;;;;;4995683;28;20022;-79
2022/04/20 00:13:39;;;;;;;2.50;1.30;;;8.40;99.90;;;;;;5013204;28;20022;-82
2022/04/20 00:16:05;;;;;;;2.00;1.20;;;8.40;99.90;;;;;;4996107;28;20442;-80
2022/04/20 00:18:37;;;;;;;2.30;1.58;;;8.50;99.90;;;;;;5013376;28;21750;-82
2022/04/20 00:21:03;;;;;;;4.10;1.73;;;8.40;99.90;;;;;;5013354;28;20018;-81
2022/04/20 00:23:29;;;;;;;3.30;1.38;;;8.40;99.90;;;;;;5013283;28;20026;-81
2022/04/20 00:25:55;;;;;;;3.40;1.27;;;8.30;99.90;;;;;;5013170;28;20094;-80
2022/04/20 00:28:20;;;;;;;4.68;1.23;;;8.30;99.90;;;;;;5013016;28;20056;-80
2022/04/20 00:30:46;;;;;;;2.92;1.40;;;8.30;99.90;;;;;;5013204;28;20033;-84
2022/04/20 00:33:11;;;;;;;2.20;1.42;;;8.30;99.90;;;;;;4994986;28;20041;-80
2022/04/20 00:35:39;;;;;;;2.83;1.45;;;8.20;99.90;;;;;;5012904;28;20038;-81
2022/04/20 00:38:05;;;;;;;3.88;1.63;;;8.20;99.90;;;;;;4995774;28;20060;-80
2022/04/20 00:40:31;;;;;;;4.22;1.75;;;8.20;99.90;;;;;;4995337;28;20473;-83
2022/04/20 00:42:56;;;;;;;1.83;1.45;;;8.10;99.90;;;;;;4995721;28;20022;-81
2022/04/20 00:45:23;;;;;;;2.25;1.23;;;8.10;99.90;;;;;;4995740;28;20366;-80
2022/04/20 00:47:51;;;;;;;2.00;1.27;;;8.10;99.90;;;;;;5012559;28;20037;-81
2022/04/20 00:50:17;;;;;;;1.55;0.85;;;8.00;99.90;;;;;;5013242;28;20083;-81
2022/04/20 00:52:43;;;;;;;8.35;1.30;;;8.00;99.90;;;;;;4995570;28;20081;-81
2022/04/20 00:55:09;;;;;;;4.03;1.55;;;8.00;99.90;;;;;;4994796;28;20030;-79
2022/04/20 00:57:35;;;;;;;3.15;1.17;;;8.00;99.90;;;;;;5012960;28;20038;-79
2022/04/20 01:00:03;;;;;;;1.60;1.13;;;7.90;99.90;;;;;;5013482;28;20061;-79
2022/04/20 01:02:30;;;;;;;1.85;1.20;;;8.00;99.90;;;;;;4994914;28;20022;-80
2022/04/20 01:04:55;;;;;;;1.35;0.73;;;7.90;99.90;;;;;;5012458;28;20030;-81
2022/04/20 01:07:22;;;;;;;3.90;1.30;;;7.90;99.90;;;;;;5012792;28;20041;-81
2022/04/20 01:09:48;;;;;;;4.35;1.77;;;7.80;99.90;;;;;;5012434;28;20023;-79
2022/04/20 01:12:16;;;;;;;4.75;2.20;;;7.80;99.90;;;;;;5012634;28;20031;-80
2022/04/20 01:14:42;;;;;;;4.72;1.40;;;7.70;99.90;;;;;;5012808;28;20025;-79
2022/04/20 01:17:08;;;;;;;2.13;0.88;;;7.70;99.90;;;;;;4994593;28;20037;-79
2022/04/20 01:19:39;;;;;;;2.58;0.93;;;7.70;99.90;;;;;;5012843;28;20030;-81
2022/04/20 01:22:08;;;;;;;6.47;1.67;;;7.60;99.90;;;;;;4999514;28;20033;-81
2022/04/20 01:24:36;;;;;;;3.95;1.45;;;7.60;99.90;;;;;;5016747;28;20080;-83
2022/04/20 01:27:10;;;;;;;3.95;1.73;;;7.60;99.90;;;;;;4999232;28;20022;-82
2022/04/20 01:29:36;;;;;;;2.03;1.57;;;7.60;99.90;;;;;;4999321;28;20089;-80
2022/04/20 01:32:02;;;;;;;2.95;1.35;;;7.60;99.90;;;;;;5016368;28;20300;-80
2022/04/20 01:34:28;;;;;;;2.20;0.77;;;7.50;99.90;;;;;;4999025;28;20030;-79
2022/04/20 01:36:54;;;;;;;3.05;1.73;;;7.50;99.90;;;;;;5016120;28;20043;-82
2022/04/20 01:39:22;;;;;;;4.97;1.48;;;7.50;99.90;;;;;;4998645;28;20136;-81
2022/04/20 01:41:48;;;;;;;8.45;1.13;;;7.40;99.90;;;;;;5016487;28;20029;-82
2022/04/20 01:44:13;;;;;;;1.75;0.93;;;7.40;99.90;;;;;;4998179;28;20030;-80
2022/04/20 01:46:39;;;;;;;1.60;1.08;;;7.40;99.90;;;;;;5016499;28;20385;-82
2022/04/20 01:49:04;;;;;;;1.60;1.08;;;7.40;99.90;;;;;;4998208;28;20042;-80
2022/04/20 01:54:14;;;;;;;3.83;1.52;;;7.40;99.90;;;;;;5015955;28;20040;-80
2022/04/20 01:56:41;;;;;;;6.78;2.03;;;7.30;99.90;;;;;;4998303;28;20391;-80
2022/04/20 01:59:07;;;;;;;3.25;1.90;;;7.30;99.90;;;;;;4998330;28;20031;-80
2022/04/20 02:04:18;;;;;;;3.15;1.20;;;7.20;99.90;;;;;;5015878;28;20054;-81
2022/04/20 02:06:44;;;;;;;9.50;1.55;;;7.20;99.90;;;;;;5015631;28;20073;-83
2022/04/20 02:09:10;;;;;;;4.65;1.50;;;7.10;99.90;;;;;;4998412;28;20017;-80
2022/04/20 02:11:35;;;;;;;3.63;1.65;;;7.10;99.90;;;;;;4997939;28;20030;-81
2022/04/20 02:14:02;;;;;;;8.57;2.03;;;7.00;99.90;;;;;;5015598;28;20023;-83
2022/04/20 02:16:28;;;;;;;3.38;1.42;;;7.00;99.90;;;;;;4998048;28;20041;-81
2022/04/20 02:18:53;;;;;;;2.20;1.73;;;6.90;99.90;;;;;;5015291;28;20911;-82
2022/04/20 02:21:19;;;;;;;6.35;1.55;;;6.90;99.90;;;;;;4997901;28;20045;-79
2022/04/20 02:23:45;;;;;;;2.63;1.58;;;7.00;99.90;;;;;;4997602;28;20031;-81
2022/04/20 02:26:10;;;;;;;3.38;1.42;;;7.00;99.90;;;;;;4996970;28;20037;-81
2022/04/20 02:28:36;;;;;;;6.28;2.15;;;6.90;99.90;;;;;;5015756;28;20018;-80
2022/04/20 02:31:01;;;;;;;16.13;1.85;;;6.90;99.90;;;;;;4997756;28;20033;-81
2022/04/20 02:33:27;;;;;;;4.05;1.65;;;6.90;99.90;;;;;;5014202;28;20086;-81
2022/04/20 02:35:52;;;;;;;3.20;1.48;;;6.90;99.90;;;;;;5015636;28;20084;-81
2022/04/20 02:38:19;;;;;;;5.78;2.03;;;6.90;99.90;;;;;;5014866;28;20037;-79
2022/04/20 02:40:45;;;;;;;3.97;1.85;;;6.90;99.90;;;;;;5014711;28;20029;-82
2022/04/20 02:43:11;;;;;;;4.63;1.80;;;6.80;99.90;;;;;;5015110;28;20026;-81
2022/04/20 02:45:37;;;;;;;5.45;1.77;;;6.90;99.90;;;;;;4997619;28;20030;-81
2022/04/20 02:48:04;;;;;;;4.65;1.75;;;6.80;99.90;;;;;;5014359;28;20057;-81
2022/04/20 02:50:30;;;;;;;3.10;1.70;;;6.70;99.90;;;;;;5015184;28;20056;-83
2022/04/20 02:52:56;;;;;;;7.28;2.55;;;6.70;99.90;;;;;;4997404;28;20053;-81
2022/04/20 02:55:22;;;;;;;3.53;1.73;;;6.70;99.90;;;;;;4997042;28;20110;-81
2022/04/20 02:57:49;;;;;;;3.42;1.75;;;6.70;99.90;;;;;;4997198;28;20041;-82
2022/04/20 03:00:16;;;;;;;5.05;1.95;;;6.60;99.90;;;;;;4997167;28;20029;-81
2022/04/20 03:02:42;;;;;;;4.82;1.92;;;6.50;99.90;;;;;;5014813;28;20036;-82
2022/04/20 03:05:11;;;;;;;6.05;2.15;;;6.60;99.90;;;;;;4997524;28;20033;-82
2022/04/20 03:07:37;;;;;;;5.13;2.10;;;6.60;99.90;;;;;;4996902;28;20022;-81
2022/04/20 03:10:03;;;;;;;4.32;1.90;;;6.60;99.90;;;;;;4997226;28;20520;-84
2022/04/20 03:12:29;;;;;;;10.52;2.72;;;6.60;99.90;;;;;;4997365;28;20093;-81
2022/04/20 03:14:55;;;;;;;3.20;2.00;;;6.60;99.90;;;;;;4997050;28;20050;-82
2022/04/20 03:17:21;;;;;;;4.90;1.73;;;6.50;99.90;;;;;;4996932;28;20038;-83
2022/04/20 03:19:47;;;;;;;3.00;1.85;;;6.50;99.90;;;;;;5014562;28;20026;-80
2022/04/20 03:22:13;;;;;;;5.13;2.38;;;6.50;99.90;;;;;;4996726;28;20037;-81
2022/04/20 03:24:39;;;;;;;4.47;2.05;;;6.40;99.90;;;;;;5014914;28;20042;-81
2022/04/20 03:27:05;;;;;;;4.10;2.05;;;6.40;99.90;;;;;;4996994;28;20046;-80
2022/04/20 03:29:32;;;;;;;8.00;2.75;;;6.40;99.90;;;;;;4996768;28;20030;-81
2022/04/20 03:31:57;;;;;;;4.70;2.38;;;6.40;99.90;;;;;;4997295;28;20058;-79
2022/04/20 03:34:23;;;;;;;5.50;2.30;;;6.40;99.90;;;;;;4996426;28;20029;-82
2022/04/20 03:36:49;;;;;;;5.47;2.90;;;6.40;99.90;;;;;;4996154;28;20034;-82
2022/04/20 03:39:14;;;;;;;5.18;2.75;;;6.30;99.90;;;;;;4996353;28;20037;-83
2022/04/20 03:41:40;;;;;;;2.30;1.52;;;6.40;99.90;;;;;;5013750;28;20034;-82
2022/04/20 03:44:07;;;;;;;6.00;2.15;;;6.30;99.90;;;;;;4996434;28;20022;-84
2022/04/20 03:46:34;;;;;;;3.95;2.08;;;6.30;99.90;;;;;;5014278;28;20030;-80
2022/04/20 03:48:59;;;;;;;4.55;2.38;;;6.30;99.90;;;;;;5013605;28;20086;-81
2022/04/20 03:51:25;;;;;;;2.60;2.00;;;6.20;99.90;;;;;;5013393;28;20018;-82
2022/04/20 03:53:50;;;;;;;4.50;2.58;;;6.20;99.90;;;;;;4996375;28;20026;-80
2022/04/20 03:56:16;;;;;;;4.82;2.08;;;6.20;99.90;;;;;;5013268;28;20125;-77
2022/04/20 03:58:42;;;;;;;8.57;1.80;;;6.20;99.90;;;;;;5014253;28;20030;-76
2022/04/20 04:01:08;;;;;;;5.78;2.60;;;6.10;99.90;;;;;;5014144;28;20045;-76
2022/04/20 04:03:35;;;;;;;11.20;2.60;;;6.10;99.90;;;;;;5013335;28;20026;-77
2022/04/20 04:06:01;;;;;;;5.20;2.45;;;6.10;99.90;;;;;;4996102;28;20038;-76
2022/04/20 04:08:26;;;;;;;7.82;1.98;;;6.00;99.90;;;;;;5013788;28;20121;-76
2022/04/20 04:10:52;;;;;;;6.93;2.42;;;5.90;99.90;;;;;;5013284;28;20029;-77
2022/04/20 04:13:17;;;;;;;2.97;2.10;;;6.10;99.90;;;;;;5013557;28;20045;-77
2022/04/20 04:15:46;;;;;;;4.20;2.25;;;6.00;99.90;;;;;;5013631;28;20030;-77
2022/04/20 04:18:12;;;;;;;11.32;2.50;;;6.00;99.90;;;;;;4995570;28;20034;-77
2022/04/20 04:20:38;;;;;;;6.93;2.45;;;5.90;99.90;;;;;;4996549;28;20026;-77
2022/04/20 04:23:04;;;;;;;5.00;2.80;;;5.90;99.90;;;;;;4995964;28;20026;-77
2022/04/20 04:25:29;;;;;;;3.72;2.33;;;5.90;99.90;;;;;;5014414;28;20037;-76
2022/04/20 04:27:55;;;;;;;3.58;2.35;;;5.90;99.90;;;;;;5013623;28;20035;-77
2022/04/20 04:30:21;;;;;;;3.85;2.05;;;5.90;99.90;;;;;;5013169;28;20022;-77
2022/04/20 04:32:47;;;;;;;6.18;2.60;;;5.90;99.90;;;;;;5013412;28;20030;-76
2022/04/20 04:35:13;;;;;;;4.90;2.85;;;5.80;99.90;;;;;;4995837;28;20033;-76
2022/04/20 04:37:39;;;;;;;5.80;2.65;;;5.80;99.90;;;;;;5012511;28;20035;-76
2022/04/20 04:40:07;;;;;;;3.47;2.20;;;5.90;99.90;;;;;;4995084;28;20026;-78
2022/04/20 04:42:33;;;;;;;5.78;2.78;;;5.90;99.90;;;;;;4995382;28;20034;-76
2022/04/20 04:48:36;;;;;;;5.95;2.88;;;5.90;99.90;;;;;;5013001;28;20515;-76
2022/04/20 04:50:29;;;;;;;6.07;2.45;;;5.90;99.90;;;;;;5012876;28;20054;-77
2022/04/20 04:52:54;;;;;;;7.10;2.45;;;5.90;99.90;;;;;;4995171;28;20030;-75
2022/04/20 04:55:20;;;;;;;8.77;2.80;;;5.80;99.90;;;;;;5012126;28;20019;-79
2022/04/20 04:57:45;;;;;;;4.90;2.05;;;5.80;99.90;;;;;;5014518;28;20042;-77
2022/04/20 05:00:11;;;;;;;3.70;2.10;;;5.90;99.90;;;;;;5012108;28;20034;-76
2022/04/20 05:02:37;;;;;;;6.65;2.85;;;5.90;99.90;;;;;;5013095;28;20477;-77
2022/04/20 05:05:04;;;;;;;18.08;3.45;;;5.90;99.90;;;;;;5012822;28;20018;-80
2022/04/20 05:07:30;;;;;;;3.92;2.45;;;5.90;99.90;;;;;;5012605;28;20057;-78
2022/04/20 05:09:55;;;;;;;10.05;2.88;;;5.90;99.90;;;;;;5013991;28;20030;-76
2022/04/20 05:12:21;;;;;;;4.47;2.97;;;5.80;99.90;;;;;;5012042;28;20039;-76
2022/04/20 05:14:49;;;;;;;3.88;1.95;;;5.90;99.90;;;;;;5014327;28;20393;-75
2022/04/20 05:17:14;;;;;;;8.55;2.85;;;5.90;99.90;;;;;;5012567;28;20038;-75
2022/04/20 05:19:40;;;;;;;6.47;2.70;;;6.00;99.90;;;;;;5012865;28;20103;-76
2022/04/20 05:22:06;;;;;;;3.10;2.10;;;6.00;99.90;;;;;;5012920;28;21075;-78
2022/04/20 05:24:35;;;;;;;7.45;2.75;;;6.10;99.90;;;;;;5012580;28;20037;-77
2022/04/20 05:27:01;;;;;;;7.40;2.97;;;6.20;99.90;;;;;;5012423;28;20034;-75
2022/04/20 05:29:33;;;;;;;7.10;2.60;;;6.20;99.90;;;;;;4994876;28;20026;-77
2022/04/20 05:31:59;;;;;;;3.92;1.67;;;6.30;99.90;;;;;;5011989;28;20153;-76
2022/04/20 05:34:26;;;;;;;5.07;2.30;;;6.40;99.90;;;;;;5012506;28;20018;-76
2022/04/20 05:42:21;;;;;;;4.75;1.90;;;6.60;99.90;;;;;;5012988;28;20049;-78
2022/04/20 05:44:47;;;;;;;7.03;1.88;;;6.70;99.90;;;;;;5012612;28;20037;-80
2022/04/20 05:47:12;;;;;;;6.28;2.50;;;6.70;99.90;;;;;;5011832;28;20038;-78
2022/04/20 05:49:38;;;;;;;5.88;2.42;;;6.80;99.90;;;;;;5012331;28;20105;-79
2022/04/20 05:52:05;;;;;;;5.38;2.17;;;6.90;99.90;;;;;;5012412;28;20073;-78
2022/04/20 05:54:31;;;;;;;3.13;1.80;;;7.00;99.90;;;;;;4994645;28;20057;-78
2022/04/20 05:56:57;;;;;;;4.78;2.33;;;7.00;99.90;;;;;;5011932;28;20034;-80
2022/04/20 05:59:23;;;;;;;10.98;1.90;;;7.10;99.90;;;;;;5012296;28;20022;-80
2022/04/20 06:01:55;;;;;;;4.15;2.22;;;7.20;99.90;;;;;;5012121;28;20034;-78
2022/04/20 06:04:21;;;;;;;4.55;2.45;;;7.30;99.90;;;;;;5012245;28;20078;-79
2022/04/20 06:06:46;;;;;;;3.80;2.25;;;7.40;99.90;;;;;;4995087;28;20073;-80
2022/04/20 06:09:12;;;;;;;7.38;2.28;;;7.50;99.90;;;;;;4998073;28;20034;-77
2022/04/20 06:11:37;;;;;;;4.10;2.25;;;7.70;99.90;;;;;;5015988;28;20022;-79
2022/04/20 06:14:04;;;;;;;7.15;2.80;;;7.70;99.90;;;;;;4998144;28;20019;-81
2022/04/20 06:16:29;;;;;;;14.68;2.65;;;7.70;99.90;;;;;;4997782;28;20038;-78
2022/04/20 06:18:56;;;;;;;3.88;2.22;;;7.80;99.90;;;;;;5014470;28;20042;-78
2022/04/20 06:21:22;;;;;;;2.95;1.77;;;7.90;99.90;;;;;;5015294;28;20022;-79
2022/04/20 06:23:47;;;;;;;4.05;2.10;;;8.00;99.90;;;;;;4997164;28;20018;-78
2022/04/20 06:26:16;;;;;;;3.53;2.00;;;8.10;99.90;;;;;;5014560;28;20037;-79
2022/04/20 06:28:41;;;;;;;3.05;1.98;;;8.10;99.90;;;;;;5015850;28;20102;-78
2022/04/20 06:31:07;;;;;;;4.68;2.42;;;8.20;99.90;;;;;;4998009;28;20030;-79
2022/04/20 06:33:33;;;;;;;3.95;1.60;;;8.20;99.90;;;;;;4998221;28;20521;-78
2022/04/20 06:36:00;;;;;;;4.80;2.33;;;8.30;99.90;;;;;;5016394;28;20093;-79
2022/04/20 06:38:26;;;;;;;4.57;1.75;;;8.40;99.90;;;;;;4997903;28;20037;-80
2022/04/20 06:40:52;;;;;;;3.25;2.40;;;8.40;99.90;;;;;;4997592;28;20026;-78
2022/04/20 06:43:19;;;;;;;4.05;2.10;;;8.50;99.90;;;;;;4997407;28;20018;-79
2022/04/20 06:45:45;;;;;;;3.55;1.92;;;8.60;99.90;;;;;;5015993;28;20030;-79
2022/04/20 06:48:11;;;;;;;3.00;2.00;;;8.60;99.90;;;;;;4995764;28;20081;-80
2022/04/20 06:50:39;;;;;;;5.68;2.20;;;8.70;99.90;;;;;;5015118;28;20027;-79
2022/04/20 06:58:36;;;;;;;6.78;2.60;;;8.90;99.90;;;;;;5014381;28;20054;-78
2022/04/20 07:01:07;;;;;;;3.15;2.22;;;9.00;99.90;;;;;;5014631;28;20034;-79
2022/04/20 07:03:34;;;;;;;5.63;1.83;;;9.00;99.90;;;;;;4997109;28;20033;-81
2022/04/20 07:06:00;;;;;;;4.50;2.10;;;9.10;99.90;;;;;;5014024;28;20026;-80
2022/04/20 07:08:26;;;;;;;4.32;2.33;;;9.10;99.90;;;;;;4999170;28;20026;-78
2022/04/20 07:10:52;;;;;;;5.15;2.38;;;9.20;99.90;;;;;;5014693;28;21106;-79
2022/04/20 07:13:18;;;;;;;5.90;2.13;;;9.30;99.90;;;;;;5014377;28;20045;-81
2022/04/20 07:15:45;;;;;;;6.28;2.15;;;9.40;99.90;;;;;;5014335;28;20025;-79
2022/04/20 07:18:12;;;;;;;2.95;1.75;;;9.50;99.90;;;;;;4996279;28;20517;-77
2022/04/20 07:20:38;;;;;;;3.75;2.33;;;9.50;99.90;;;;;;5014662;28;20018;-80
2022/04/20 07:23:04;;;;;;;4.57;2.40;;;9.60;99.90;;;;;;4998616;28;20107;-80
2022/04/20 07:25:30;;;;;;;6.03;2.40;;;9.70;99.90;;;;;;4996727;28;20026;-80
2022/04/20 07:27:56;;;;;;;4.13;2.13;;;9.70;99.90;;;;;;4996396;28;20034;-81
2022/04/20 07:30:21;;;;;;;13.68;2.08;;;9.80;99.90;;;;;;4996281;28;20044;-81
2022/04/20 07:32:48;;;;;;;9.23;2.47;;;9.70;99.90;;;;;;5012825;28;20084;-79
2022/04/20 07:35:14;;;;;;;4.97;2.03;;;9.70;99.90;;;;;;5014333;28;20525;-80
2022/04/20 07:37:40;;;;;;;6.65;2.50;;;9.70;99.90;;;;;;4994741;28;20081;-79
2022/04/20 07:40:06;;;;;;;18.20;2.65;;;9.70;99.90;;;;;;4996264;28;20066;-81
2022/04/20 07:42:33;;;;;;;10.15;2.45;;;9.70;99.90;;;;;;5013273;28;20053;-78
2022/04/20 07:44:59;;;;;;;4.45;1.95;;;9.80;99.90;;;;;;5013189;28;20030;-77
2022/04/20 07:47:25;;;;;;;2.67;1.80;;;9.90;99.90;;;;;;5013202;28;20025;-77
2022/04/20 07:52:45;;;;;;;3.75;2.10;;;10.30;99.90;;;;;;5012882;28;20081;-79
2022/04/20 07:55:13;;;;;;;5.05;1.80;;;10.40;99.90;;;;;;5013967;28;20124;-78
2022/04/20 07:57:42;;;;;;;14.02;2.80;;;10.60;99.90;;;;;;5013960;28;20109;-79
2022/04/20 08:00:09;;;;;;;3.15;2.05;;;10.80;99.90;;;;;;5012933;28;20029;-81
2022/04/20 08:02:34;;;;;;;3.33;1.85;;;11.00;99.90;;;;;;5014878;28;20030;-79
2022/04/20 08:05:00;;;;;;;5.38;2.60;;;11.20;99.90;;;;;;5013059;28;20034;-79
2022/04/20 08:07:26;;;;;;;4.20;1.90;;;11.40;99.90;;;;;;4995860;28;20022;-79
2022/04/20 08:09:56;;;;;;;3.50;1.98;;;11.70;99.90;;;;;;5013317;28;20026;-78
2022/04/20 08:12:24;;;;;;;5.35;2.33;;;11.80;99.90;;;;;;4995506;28;20034;-78
2022/04/20 08:14:51;;;;;;;4.18;2.10;;;11.80;99.90;;;;;;5014154;28;20025;-78
2022/04/20 08:17:17;;;;;;;2.50;1.55;;;11.90;99.90;;;;;;5012867;28;20042;-79
2022/04/20 08:19:42;;;;;;;2.40;1.50;;;12.10;99.90;;;;;;5013421;28;20450;-78
2022/04/20 08:22:09;;;;;;;3.13;1.67;;;12.20;99.90;;;;;;5010888;28;20078;-79
2022/04/20 08:24:34;;;;;;;6.32;2.38;;;12.30;99.90;;;;;;4994922;28;20553;-79
2022/04/20 08:27:02;;;;;;;5.07;2.15;;;12.50;99.90;;;;;;5012943;28;20048;-79
2022/04/20 08:29:27;;;;;;;4.45;2.70;;;12.70;99.90;;;;;;4994449;28;20025;-76
2022/04/20 08:31:53;;;;;;;4.07;1.70;;;12.90;99.90;;;;;;5012708;28;20034;-79
2022/04/20 08:34:18;;;;;;;5.00;2.25;;;13.00;99.90;;;;;;5012013;28;20071;-77
2022/04/20 08:36:44;;;;;;;5.63;2.63;;;13.20;99.90;;;;;;4994642;28;20034;-78
2022/04/20 08:39:10;;;;;;;3.15;1.67;;;13.50;99.90;;;;;;5013568;28;20026;-80
2022/04/20 08:41:36;;;;;;;5.70;2.80;;;13.50;99.90;;;;;;4997369;28;20153;-78
2022/04/20 08:44:04;;;;;;;2.53;1.52;;;13.60;99.90;;;;;;5014193;28;20109;-77
2022/04/20 08:46:42;;;;;;;3.85;1.88;;;13.90;99.90;;;;;;5013082;28;20125;-78
2022/04/20 08:49:08;;;;;;;5.32;2.42;;;14.00;99.90;;;;;;5012541;28;20552;-78
2022/04/20 08:54:23;;;;;;;4.32;1.80;;;14.30;99.90;;;;;;5012020;28;20036;-78
2022/04/20 08:59:35;;;;;;;;;;;14.50;99.90;;;;;;5012447;28;20049;-77
2022/04/20 09:02:03;;;;;;;3.17;1.48;;;14.60;99.90;;;;;;5013227;28;19933;-78
2022/04/20 09:04:29;;;;;;;6.60;2.00;;;14.70;99.90;;;;;;4994872;28;20036;-80
2022/04/20 09:06:54;;;;;;;4.63;1.73;;;15.00;99.90;;;;;;4994868;28;20109;-79
2022/04/20 09:09:28;;;;;;;3.08;1.77;;;15.00;99.90;;;;;;5012246;28;20027;-79
2022/04/20 09:12:00;;;;;;;5.15;1.67;;;15.30;99.90;;;;;;5011502;28;20097;-81
2022/04/20 09:14:29;;;;;;;1.83;1.35;;;15.40;99.90;;;;;;4996075;28;20061;-76
2022/04/20 09:16:55;;;;;;;3.80;1.95;;;15.50;99.90;;;;;;4994514;28;20046;-74
2022/04/20 09:19:25;;;;;;;1.95;1.35;;;15.60;99.90;;;;;;5012353;28;20080;-76
2022/04/20 09:21:55;;;;;;;4.13;2.00;;;15.60;99.90;;;;;;4994591;28;20045;-76
2022/04/20 09:24:22;;;;;;;4.32;1.90;;;15.80;99.90;;;;;;4995130;28;20060;-75
2022/04/20 09:26:57;;;;;;;2.90;1.50;;;15.90;99.90;;;;;;4993079;28;20037;-79
2022/04/20 09:29:23;;;;;;;3.22;1.35;;;16.00;99.90;;;;;;5013010;28;20018;-76
2022/04/20 09:31:51;;;;;;;2.08;1.27;;;16.10;99.90;;;;;;5011831;28;20319;-76
2022/04/20 09:34:29;;;;;;;6.15;1.45;;;16.30;99.90;;;;;;4994433;28;20393;-81
2022/04/20 09:36:55;;;;;;;3.08;1.33;;;16.30;98.50;;;;;;5012514;28;20034;-77
2022/04/20 09:39:25;;;;;;;9.55;3.13;;;16.30;99.90;;;;;;4994812;28;20019;-80
2022/04/20 09:42:02;;;;;;;6.07;2.13;;;16.50;99.60;;;;;;5014043;28;20037;-77
2022/04/20 09:44:29;;;;;;;4.30;2.03;;;16.50;98.40;;;;;;5016950;28;20041;-76
2022/04/20 09:49:54;;;;;;;2.47;1.67;;;16.70;99.60;;;;;;5015694;28;20053;-78
2022/04/20 09:52:24;;;;;;;2.47;1.55;;;16.90;99.30;;;;;;4998780;28;20026;-80
2022/04/20 09:54:55;;;;;;;2.80;1.67;;;17.00;99.90;;;;;;5016374;28;20402;-79
2022/04/20 09:57:21;;;;;;;3.33;1.70;;;17.20;98.80;;;;;;4999069;28;20134;-80
2022/04/20 10:00:10;;;;;;;11.00;1.48;;;17.30;98.80;;;;;;4998050;28;20030;-77
2022/04/20 10:02:52;;;;;;;4.35;1.88;;;17.30;99.10;;;;;;5015074;28;20030;-76
2022/04/20 10:05:26;;;;;;;4.85;2.03;;;17.40;98.70;;;;;;5015583;28;20470;-76
2022/04/20 10:07:54;;;;;;;5.87;2.40;;;17.40;98.20;;;;;;5015081;28;20022;-75
2022/04/20 10:10:20;;;;;;;3.15;1.20;;;17.50;97.70;;;;;;4998340;28;20492;-77
2022/04/20 10:12:51;;;;;;;4.43;1.45;;;17.50;97.90;;;;;;5015556;28;20026;-76
2022/04/20 10:18:02;;;;;;;6.82;2.10;;;17.70;98.00;;;;;;5016233;28;20062;-79
2022/04/20 10:20:31;;;;;;;3.20;1.80;;;17.90;98.30;;;;;;5014980;28;20030;-78
2022/04/20 10:23:02;;;;;;;3.67;1.75;;;18.10;98.40;;;;;;4998406;28;20026;-77
2022/04/20 10:25:28;;;;;;;2.38;1.35;;;18.20;98.00;;;;;;4997708;28;20022;-78
2022/04/20 10:28:32;;;;;;;4.07;2.00;;;18.40;98.60;;;;;;5014868;28;20868;-77
2022/04/20 10:31:19;;;;;;;2.37;1.17;;;18.70;97.40;;;;;;4997790;28;20037;-76
2022/04/20 10:33:45;;;;;;;3.22;1.45;;;18.80;96.60;;;;;;5024977;28;20041;-76
2022/04/20 10:36:15;;;;;;;1.48;1.17;;;19.00;95.40;;;;;;4997345;28;20026;-78
2022/04/20 10:38:42;;;;;;;1.55;0.93;;;19.10;95.70;;;;;;5014835;28;20026;-80
2022/04/20 10:41:13;;;;;;;5.43;1.60;;;19.20;94.30;;;;;;5016642;28;20032;-78
2022/04/20 10:43:42;;;;;;;3.20;1.35;;;19.30;92.40;;;;;;4999303;28;20026;-77
2022/04/20 10:46:17;;;;;;;2.97;1.30;;;19.40;94.80;;;;;;5015518;28;20033;-75
2022/04/20 10:48:51;;;;;;;2.42;1.27;;;19.50;91.10;;;;;;4996759;28;20054;-78
2022/04/20 10:51:22;;;;;;;;;;;19.40;93.50;;;;;;4998136;28;20030;-78
2022/04/20 10:54:22;;;;;;;2.75;1.35;;;19.60;91.70;;;;;;4996240;28;19968;-77
2022/04/20 10:56:49;;;;;;;2.50;1.45;;;19.80;91.80;;;;;;4996599;28;20030;-79
2022/04/20 10:59:15;;;;;;;7.15;1.30;;;19.90;93.00;;;;;;4993974;28;20026;-80
2022/04/20 11:01:59;;;;;;;2.10;1.40;;;19.90;92.00;;;;;;4997277;28;20022;-76
2022/04/20 11:05:12;;;;;;;1.10;1.00;;;20.00;90.80;;;;;;4996544;28;20030;-78
2022/04/20 11:08:04;;;;;;;2.55;1.20;;;20.20;90.20;;;;;;4986817;28;20054;-78
2022/04/20 11:10:30;;;;;;;4.18;1.63;;;20.30;91.00;;;;;;5015023;28;20034;-76
2022/04/20 11:19:13;;;;;;;2.58;1.10;;;20.70;90.50;;;;;;5014961;28;20128;-75
2022/04/20 11:22:13;;;;;;;2.22;1.17;;;20.80;86.70;;;;;;4995569;28;20026;-76
2022/04/20 11:24:42;;;;;;;2.03;1.13;;;20.60;86.00;;;;;;5012451;28;20041;-74
2022/04/20 11:27:08;;;;;;;2.58;1.38;;;20.40;84.80;;;;;;4996292;28;20471;-78
2022/04/20 11:29:34;;;;;;;1.85;1.27;;;20.40;88.30;;;;;;5014054;28;20047;-76
2022/04/20 11:32:02;;;;;;;2.42;1.30;;;20.40;86.00;;;;;;5014194;28;20136;-76
2022/04/20 11:34:39;;;;;;;10.13;1.27;;;20.50;87.30;;;;;;4996769;28;20026;-77
2022/04/20 11:37:06;;;;;;;1.95;1.25;;;20.60;88.30;;;;;;4996793;28;20042;-79
2022/04/20 11:39:33;;;;;;;1.35;0.90;;;20.90;89.00;;;;;;4996213;28;20034;-76
2022/04/20 11:42:02;;;;;;;3.20;1.33;;;21.10;88.80;;;;;;5014078;28;20026;-75
2022/04/20 11:44:35;;;;;;;3.22;1.30;;;21.20;86.80;;;;;;5013904;28;20026;-74
2022/04/20 11:47:07;;;;;;;2.60;1.15;;;21.40;82.80;;;;;;4996151;28;20113;-77
2022/04/20 11:49:40;;;;;;;3.63;1.20;;;21.50;82.10;;;;;;5028805;28;20060;-77
2022/04/20 11:52:09;;;;;;;5.00;1.45;;;21.40;83.60;;;;;;4996606;28;20423;-77
2022/04/20 11:54:36;;;;;;;2.72;1.50;;;21.30;82.80;;;;;;5013338;28;20042;-77
2022/04/20 11:57:03;;;;;;;13.65;1.20;;;21.30;85.00;;;;;;4995843;28;20053;-76
2022/04/20 11:59:29;;;;;;;1.35;0.82;;;21.50;83.20;;;;;;5013415;28;20037;-78
2022/04/20 12:01:55;;;;;;;1.25;0.82;;;21.60;82.80;;;;;;4995652;28;20026;-73
2022/04/20 12:04:25;;;;;;;2.88;1.40;;;21.70;79.10;;;;;;4995027;28;20018;-78
2022/04/20 12:06:53;;;;;;;3.25;1.10;;;21.80;80.80;;;;;;4995943;28;20034;-77
2022/04/20 12:09:24;;;;;;;2.25;1.40;;;22.00;82.00;;;;;;5013687;28;20030;-77
2022/04/20 12:12:16;;;;;;;2.55;1.52;;;22.20;79.80;;;;;;4995575;28;20062;-77
2022/04/20 12:14:42;;;;;;;2.83;1.30;;;22.20;80.90;;;;;;4995714;28;20121;-77
2022/04/20 12:17:14;;;;;;;2.55;1.33;;;22.40;82.10;;;;;;5012701;28;20576;-82
2022/04/20 12:19:41;;;;;;;3.13;1.20;;;22.60;81.30;;;;;;5013710;28;20105;-78
2022/04/20 12:22:11;;;;;;;1.98;1.13;;;22.90;80.80;;;;;;4995435;28;20385;-76
2022/04/20 12:24:38;;;;;;;2.28;0.90;;;23.10;81.00;;;;;;5013317;28;20018;-78
2022/04/20 12:27:24;;;;;;;3.20;1.35;;;23.10;78.80;;;;;;4995473;28;20034;-79
2022/04/20 12:29:58;;;;;;;3.53;1.17;;;23.00;74.60;;;;;;5012760;28;20106;-75
2022/04/20 12:32:32;;;;;;;3.10;1.30;;;22.90;77.90;;;;;;4995839;28;20097;-77
2022/04/20 12:35:01;;;;;;;3.65;1.15;;;23.10;76.50;;;;;;4995578;28;20369;-75
2022/04/20 12:37:31;;;;;;;1.58;1.20;;;23.00;77.70;;;;;;5012995;28;20038;-77
2022/04/20 12:40:17;;;;;;;1.98;1.13;;;22.90;78.00;;;;;;4995487;28;20057;-77
2022/04/20 12:43:07;;;;;;;2.67;1.40;;;23.00;78.30;;;;;;4995247;28;20062;-79
2022/04/20 12:45:33;;;;;;;2.70;1.13;;;23.30;75.20;;;;;;5013466;28;20034;-77
2022/04/20 12:48:05;;;;;;;1.83;1.33;;;23.40;76.00;;;;;;4995456;28;20634;-80
2022/04/20 12:50:40;;;;;;;2.75;1.35;;;23.40;74.10;;;;;;5011673;28;20057;-84
2022/04/20 12:53:07;;;;;;;2.85;1.23;;;23.40;74.70;;;;;;4999743;28;20475;-80
2022/04/20 13:02:01;;;;;;;3.05;1.50;;;23.60;75.20;;;;;;4993463;28;20030;-78
2022/04/20 13:04:13;;;;;;;1.67;1.10;;;24.30;73.90;;;;;;5012755;28;20044;-79
2022/04/20 13:06:38;;;;;;;2.03;1.02;;;24.30;75.20;;;;;;5011767;28;20036;-76
2022/04/20 13:09:07;;;;;;;1.85;1.10;;;24.20;73.40;;;;;;5013225;28;20030;-80
2022/04/20 13:11:33;;;;;;;2.45;1.20;;;24.30;72.80;;;;;;5014968;28;20433;-74
2022/04/20 13:13:59;;;;;;;4.47;1.55;;;24.10;71.00;;;;;;5013631;28;20522;-77
2022/04/20 13:16:25;;;;;;;4.80;1.50;;;23.90;71.90;;;;;;5014341;28;20022;-79
2022/04/20 13:18:51;;;;;;;6.25;1.15;;;23.80;74.00;;;;;;5016339;28;20021;-77
2022/04/20 13:21:16;;;;;;;2.58;1.58;;;23.70;72.70;;;;;;5016933;28;20023;-76
2022/04/20 13:23:42;;;;;;;3.65;1.33;;;23.70;72.70;;;;;;4998951;28;20030;-79
2022/04/20 13:29:00;;;;;;;1.33;1.15;;;23.80;73.50;;;;;;4994203;28;20558;-77
2022/04/20 13:31:28;;;;;;;3.42;1.80;;;23.70;71.80;;;;;;5000026;28;20027;-79
2022/04/20 13:33:58;;;;;;;4.07;2.08;;;23.50;71.30;;;;;;5014741;28;20491;-76
2022/04/20 13:36:24;;;;;;;8.10;2.10;;;23.50;73.30;;;;;;4998162;28;20049;-78
2022/04/20 13:38:50;;;;;;;3.50;1.23;;;23.60;71.70;;;;;;4998327;28;20035;-75
2022/04/20 13:41:16;;;;;;;1.75;1.20;;;23.40;72.30;;;;;;4999360;28;20034;-74
2022/04/20 13:43:43;;;;;;;1.70;1.10;;;23.40;73.90;;;;;;4996457;28;20030;-77
2022/04/20 13:46:08;;;;;;;1.40;1.05;;;23.80;74.20;;;;;;5014918;28;20073;-77